Time;durP1;ratioP1;P1;durP2;ratioP2;P2;SDS_P1;SDS_P2;PMS_P1;PMS_P2;Temp;Humidity;BMP_temperature;BMP_pressure;BME280_temperature;BME280_humidity;BME280_pressure;Samples;Min_cycle;Max_cycle;Signal;HPM_P1;HPM_P2
2021/12/08 00:01:37;;;;;;;31.67;5.65;;;;;;;;;;4994753;28;20026;-28
2021/12/08 00:04:03;;;;;;;35.85;4.63;;;;;;;;;;4996421;28;20370;-28
2021/12/08 00:06:30;;;;;;;31.30;6.93;;;;;;;;;;4998872;28;20103;-29
2021/12/08 00:09:03;;;;;;;35.15;5.10;;;;;;;;;;4998518;28;20038;-29
2021/12/08 00:14:15;;;;;;;31.77;5.93;;;;;;;;;;4998471;28;20049;-28
2021/12/08 00:16:41;;;;;;;23.73;5.50;;;;;;;;;;4998665;28;20034;-28
2021/12/08 00:19:07;;;;;;;31.10;5.20;;;;;;;;;;4998371;28;20085;-28
2021/12/08 00:21:33;;;;;;;45.17;6.72;;;;;;;;;;4998382;28;20046;-28
2021/12/08 00:24:00;;;;;;;35.88;5.72;;;;;;;;;;4998239;28;20097;-29
2021/12/08 00:26:26;;;;;;;33.55;5.15;;;;;;;;;;4998273;28;20117;-28
2021/12/08 00:28:52;;;;;;;40.95;6.68;;;;;;;;;;4998236;28;20116;-28
2021/12/08 00:31:18;;;;;;;36.47;5.95;;;;;;;;;;4998215;28;20361;-28
2021/12/08 00:33:46;;;;;;;29.30;6.35;;;;;;;;;;4998281;28;20109;-28
2021/12/08 00:36:14;;;;;;;33.63;7.20;;;;;;;;;;4998129;28;20026;-28
2021/12/08 00:38:41;;;;;;;27.08;5.50;;;;;;;;;;4998070;28;20307;-28
2021/12/08 00:41:07;;;;;;;27.85;5.22;;;;;;;;;;4998270;28;20339;-28
2021/12/08 00:43:34;;;;;;;25.77;6.20;;;;;;;;;;4998182;28;20045;-28
2021/12/08 00:46:00;;;;;;;29.02;4.85;;;;;;;;;;4997896;28;20454;-28
2021/12/08 00:48:26;;;;;;;29.05;5.63;;;;;;;;;;4998063;28;20030;-29
2021/12/08 00:50:52;;;;;;;36.67;6.50;;;;;;;;;;4997739;28;20022;-28
2021/12/08 00:53:19;;;;;;;32.03;6.15;;;;;;;;;;4998371;28;20030;-29
2021/12/08 00:55:46;;;;;;;40.30;5.10;;;;;;;;;;4997625;28;20103;-28
2021/12/08 00:58:13;;;;;;;37.50;5.55;;;;;;;;;;4997638;28;20430;-28
2021/12/08 01:00:41;;;;;;;35.55;5.57;;;;;;;;;;4997867;28;20393;-29
2021/12/08 01:03:08;;;;;;;18.00;4.75;;;;;;;;;;4997352;28;20115;-29
2021/12/08 01:05:36;;;;;;;30.80;6.45;;;;;;;;;;4997781;28;20034;-29
2021/12/08 01:08:03;;;;;;;22.08;6.70;;;;;;;;;;4997548;28;20358;-29
2021/12/08 01:10:30;;;;;;;21.33;4.28;;;;;;;;;;4997526;28;20026;-29
2021/12/08 01:12:56;;;;;;;28.85;4.88;;;;;;;;;;4997360;28;20037;-29
2021/12/08 01:15:24;;;;;;;23.25;4.65;;;;;;;;;;4996960;28;20050;-29
2021/12/08 01:17:50;;;;;;;26.42;4.60;;;;;;;;;;4997578;28;20045;-29
2021/12/08 01:20:17;;;;;;;23.75;4.30;;;;;;;;;;4997279;28;20078;-29
2021/12/08 01:22:43;;;;;;;27.13;5.60;;;;;;;;;;4997153;28;20065;-29
2021/12/08 01:25:10;;;;;;;36.08;5.57;;;;;;;;;;4997075;28;20038;-28
2021/12/08 01:27:36;;;;;;;25.85;5.05;;;;;;;;;;4997372;28;20077;-28
2021/12/08 01:30:04;;;;;;;32.33;5.05;;;;;;;;;;4997057;28;20026;-28
2021/12/08 01:32:31;;;;;;;21.10;4.38;;;;;;;;;;4996940;28;20450;-28
2021/12/08 01:34:57;;;;;;;21.30;3.88;;;;;;;;;;4979993;28;20038;-29
2021/12/08 01:37:24;;;;;;;28.20;4.82;;;;;;;;;;4996940;28;20018;-29
2021/12/08 01:39:52;;;;;;;26.35;5.47;;;;;;;;;;4997126;28;20107;-29
2021/12/08 01:42:27;;;;;;;32.05;6.15;;;;;;;;;;4996989;28;20026;-29
2021/12/08 01:47:39;;;;;;;21.80;4.40;;;;;;;;;;4996820;28;20045;-29
2021/12/08 01:50:08;;;;;;;24.08;5.63;;;;;;;;;;4997005;28;20045;-28
2021/12/08 01:52:34;;;;;;;21.67;4.30;;;;;;;;;;4996633;28;20026;-29
2021/12/08 01:55:00;;;;;;;20.35;5.70;;;;;;;;;;4996602;28;20030;-29
2021/12/08 01:57:29;;;;;;;24.25;5.07;;;;;;;;;;4996581;28;20365;-29
2021/12/08 01:59:56;;;;;;;21.17;3.85;;;;;;;;;;4996822;28;20036;-28
2021/12/08 02:02:22;;;;;;;19.25;4.85;;;;;;;;;;4996226;28;20468;-28
2021/12/08 02:04:48;;;;;;;24.83;3.97;;;;;;;;;;4996728;28;20351;-28
2021/12/08 02:07:15;;;;;;;18.55;5.03;;;;;;;;;;4996409;28;20034;-29
2021/12/08 02:09:43;;;;;;;20.25;4.20;;;;;;;;;;4996345;28;20377;-29
2021/12/08 02:12:09;;;;;;;20.13;5.93;;;;;;;;;;4996204;28;20026;-28
2021/12/08 02:14:35;;;;;;;22.75;4.20;;;;;;;;;;4996164;28;20034;-28
2021/12/08 02:17:02;;;;;;;27.48;4.75;;;;;;;;;;4996172;28;20504;-28
2021/12/08 02:19:28;;;;;;;24.25;6.03;;;;;;;;;;4997169;28;20084;-29
2021/12/08 02:21:54;;;;;;;20.70;3.95;;;;;;;;;;4996234;28;20030;-29
2021/12/08 02:24:22;;;;;;;28.23;4.90;;;;;;;;;;4996032;28;20030;-28
2021/12/08 02:26:54;;;;;;;27.98;5.55;;;;;;;;;;4995643;28;20104;-28
2021/12/08 02:29:31;;;;;;;16.60;4.40;;;;;;;;;;4995989;28;20038;-28
2021/12/08 02:32:06;;;;;;;21.63;4.32;;;;;;;;;;4996090;28;20446;-29
2021/12/08 02:48:17;;;;;;;21.80;5.65;;;;;;;;;;4995749;28;20529;-28
2021/12/08 02:50:44;;;;;;;29.70;4.65;;;;;;;;;;4995567;28;20480;-28
2021/12/08 02:53:11;;;;;;;24.55;4.07;;;;;;;;;;4995570;28;20042;-28
2021/12/08 02:55:38;;;;;;;17.02;3.25;;;;;;;;;;4995439;28;20113;-28
2021/12/08 02:58:05;;;;;;;23.92;3.55;;;;;;;;;;4995456;28;20034;-28
2021/12/08 03:00:33;;;;;;;21.70;4.63;;;;;;;;;;4995391;28;20030;-28
2021/12/08 03:03:00;;;;;;;21.92;3.92;;;;;;;;;;4995317;28;20128;-29
2021/12/08 03:05:27;;;;;;;22.77;3.60;;;;;;;;;;4995607;28;20026;-28
2021/12/08 03:07:54;;;;;;;18.83;3.88;;;;;;;;;;4995572;28;20098;-28
2021/12/08 03:10:22;;;;;;;16.98;4.20;;;;;;;;;;4995272;28;20105;-28
2021/12/08 03:12:48;;;;;;;15.93;3.55;;;;;;;;;;4995429;28;20034;-29
2021/12/08 03:15:15;;;;;;;18.48;4.10;;;;;;;;;;4995134;28;20161;-28
2021/12/08 03:17:42;;;;;;;16.58;4.68;;;;;;;;;;4995225;28;20105;-29
2021/12/08 03:20:10;;;;;;;21.98;4.22;;;;;;;;;;4995167;28;20026;-29
2021/12/08 03:22:43;;;;;;;15.23;3.88;;;;;;;;;;4995331;28;20034;-28
2021/12/08 03:25:13;;;;;;;18.60;4.93;;;;;;;;;;4995409;28;20409;-28
2021/12/08 03:27:48;;;;;;;16.45;4.70;;;;;;;;;;4995376;28;20069;-28
2021/12/08 03:30:19;;;;;;;15.88;3.47;;;;;;;;;;4995348;28;20038;-28
2021/12/08 03:32:46;;;;;;;15.32;3.42;;;;;;;;;;4994942;28;20058;-28
2021/12/08 03:35:15;;;;;;;12.20;3.63;;;;;;;;;;4994910;28;20030;-28
2021/12/08 03:37:43;;;;;;;26.02;4.60;;;;;;;;;;4995383;28;20291;-28
2021/12/08 03:40:13;;;;;;;14.95;3.95;;;;;;;;;;5001539;28;20034;-29
2021/12/08 03:42:40;;;;;;;17.97;4.17;;;;;;;;;;5001631;28;20050;-28
2021/12/08 03:45:09;;;;;;;16.95;3.35;;;;;;;;;;5001654;28;20038;-28
2021/12/08 03:47:38;;;;;;;15.10;4.00;;;;;;;;;;5001485;28;20353;-29
2021/12/08 03:50:06;;;;;;;27.27;6.20;;;;;;;;;;5001353;28;20040;-28
2021/12/08 03:52:32;;;;;;;17.48;3.83;;;;;;;;;;5001534;28;20033;-28
2021/12/08 03:54:58;;;;;;;20.90;4.45;;;;;;;;;;5001246;28;20058;-28
2021/12/08 03:57:25;;;;;;;15.95;4.07;;;;;;;;;;5001344;28;20145;-26
2021/12/08 03:59:51;;;;;;;19.85;3.72;;;;;;;;;;5001541;28;20362;-28
2021/12/08 04:02:17;;;;;;;12.95;2.85;;;;;;;;;;5001427;28;20089;-28
2021/12/08 04:04:47;;;;;;;17.25;3.08;;;;;;;;;;5001258;28;20069;-29
2021/12/08 04:07:16;;;;;;;13.90;3.70;;;;;;;;;;5001208;28;20121;-28
2021/12/08 04:09:45;;;;;;;9.75;2.72;;;;;;;;;;5001434;28;20377;-29
2021/12/08 04:12:13;;;;;;;9.10;4.70;;;;;;;;;;5001370;28;20074;-28
2021/12/08 04:14:46;;;;;;;12.38;2.78;;;;;;;;;;5001305;28;20031;-28
2021/12/08 04:17:16;;;;;;;12.35;2.90;;;;;;;;;;5001411;28;20018;-29
2021/12/08 04:19:43;;;;;;;15.50;3.65;;;;;;;;;;5001355;28;20409;-29
2021/12/08 04:22:11;;;;;;;26.15;3.50;;;;;;;;;;4984011;28;20090;-28
2021/12/08 04:24:42;;;;;;;16.08;3.63;;;;;;;;;;5001021;28;20034;-29
2021/12/08 04:27:11;;;;;;;23.70;6.40;;;;;;;;;;5001019;28;20149;-28
2021/12/08 04:29:39;;;;;;;15.70;4.22;;;;;;;;;;5001249;28;20062;-29
2021/12/08 04:32:07;;;;;;;17.10;3.90;;;;;;;;;;5000946;28;20370;-29
2021/12/08 04:34:35;;;;;;;13.85;4.10;;;;;;;;;;5000864;28;20105;-29
2021/12/08 04:37:03;;;;;;;22.50;4.13;;;;;;;;;;5001215;28;20014;-28
2021/12/08 04:39:41;;;;;;;15.43;3.42;;;;;;;;;;5001265;28;20030;-28
2021/12/08 04:42:12;;;;;;;20.58;4.13;;;;;;;;;;5001157;28;20033;-29
2021/12/08 04:44:47;;;;;;;18.45;3.60;;;;;;;;;;5001242;28;20034;-28
2021/12/08 04:47:28;;;;;;;16.10;3.75;;;;;;;;;;5000839;28;20034;-28
2021/12/08 04:52:50;;;;;;;18.10;4.35;;;;;;;;;;4997773;28;20417;-28
2021/12/08 05:09:12;;;;;;;19.80;3.70;;;;;;;;;;4997515;28;20037;-29
2021/12/08 05:11:40;;;;;;;15.23;4.18;;;;;;;;;;4997283;28;20033;-29
2021/12/08 05:14:10;;;;;;;18.35;3.03;;;;;;;;;;4997290;28;20038;-28
2021/12/08 05:16:38;;;;;;;13.13;3.22;;;;;;;;;;4997611;28;20106;-28
2021/12/08 05:19:06;;;;;;;10.38;3.67;;;;;;;;;;4997351;28;20037;-28
2021/12/08 05:21:35;;;;;;;12.98;2.65;;;;;;;;;;4997417;28;20357;-28
2021/12/08 05:24:05;;;;;;;21.42;4.18;;;;;;;;;;4997397;28;20034;-28
2021/12/08 05:26:34;;;;;;;10.80;3.33;;;;;;;;;;4997434;28;20041;-29
2021/12/08 05:29:05;;;;;;;14.57;3.42;;;;;;;;;;4996987;28;20030;-28
2021/12/08 05:31:32;;;;;;;18.73;3.53;;;;;;;;;;4997016;28;20188;-28
2021/12/08 05:33:59;;;;;;;26.77;3.75;;;;;;;;;;4996697;28;20110;-28
2021/12/08 05:36:26;;;;;;;28.80;6.00;;;;;;;;;;4996779;28;20030;-28
2021/12/08 05:38:53;;;;;;;15.73;3.67;;;;;;;;;;4997450;28;20086;-28
2021/12/08 05:41:25;;;;;;;26.58;3.95;;;;;;;;;;4997104;28;20501;-28
2021/12/08 05:43:51;;;;;;;27.25;3.97;;;;;;;;;;4996733;28;20034;-28
2021/12/08 05:46:19;;;;;;;13.32;4.22;;;;;;;;;;4996918;28;20032;-28
2021/12/08 05:48:47;;;;;;;20.70;3.85;;;;;;;;;;4996628;28;20038;-28
2021/12/08 05:51:15;;;;;;;14.15;2.85;;;;;;;;;;4996490;28;20022;-28
2021/12/08 05:53:43;;;;;;;32.35;4.72;;;;;;;;;;4996445;28;20026;-28
2021/12/08 05:56:10;;;;;;;24.02;4.57;;;;;;;;;;4996765;28;20041;-28
2021/12/08 05:58:38;;;;;;;12.10;3.55;;;;;;;;;;4979397;28;20082;-28
2021/12/08 06:01:16;;;;;;;22.00;5.40;;;;;;;;;;4996487;28;20058;-28
2021/12/08 06:03:44;;;;;;;12.88;3.28;;;;;;;;;;4987254;28;20053;-28
2021/12/08 06:06:12;;;;;;;21.58;3.75;;;;;;;;;;4995574;28;20093;-28
2021/12/08 06:08:38;;;;;;;14.98;3.60;;;;;;;;;;4996295;28;20109;-28
2021/12/08 06:11:07;;;;;;;30.55;4.28;;;;;;;;;;4996294;28;20031;-28
2021/12/08 06:13:33;;;;;;;18.67;4.22;;;;;;;;;;4996893;28;20513;-28
2021/12/08 06:15:59;;;;;;;20.20;3.58;;;;;;;;;;4996077;28;20042;-28
2021/12/08 06:18:27;;;;;;;17.65;3.30;;;;;;;;;;4996124;28;20119;-28
2021/12/08 06:20:55;;;;;;;19.23;3.60;;;;;;;;;;4996066;28;20166;-28
2021/12/08 06:23:21;;;;;;;44.30;4.40;;;;;;;;;;4995940;28;20026;-28
2021/12/08 06:25:48;;;;;;;39.95;4.93;;;;;;;;;;4995930;28;20092;-28
2021/12/08 06:28:14;;;;;;;30.02;4.60;;;;;;;;;;4995857;28;20036;-28
2021/12/08 06:30:45;;;;;;;36.80;4.80;;;;;;;;;;4996135;28;20057;-28
2021/12/08 06:33:12;;;;;;;33.22;3.97;;;;;;;;;;4996014;28;20031;-28
2021/12/08 06:35:44;;;;;;;35.60;4.22;;;;;;;;;;4995780;28;20085;-28
2021/12/08 06:38:12;;;;;;;18.02;3.55;;;;;;;;;;4995986;28;20056;-28
2021/12/08 06:40:44;;;;;;;18.77;4.70;;;;;;;;;;4995677;28;20421;-29
2021/12/08 06:43:13;;;;;;;21.77;4.15;;;;;;;;;;4995706;28;20030;-29
2021/12/08 06:45:42;;;;;;;22.98;5.80;;;;;;;;;;4995587;28;20026;-28
2021/12/08 06:48:12;;;;;;;19.55;4.30;;;;;;;;;;4995584;28;20031;-28
2021/12/08 06:50:42;;;;;;;20.75;3.33;;;;;;;;;;4996291;28;20037;-28
2021/12/08 06:53:09;;;;;;;19.35;4.18;;;;;;;;;;4995792;28;20026;-28
2021/12/08 06:55:38;;;;;;;34.65;4.55;;;;;;;;;;4995700;28;20058;-28
2021/12/08 06:58:07;;;;;;;28.73;5.10;;;;;;;;;;4995718;28;20023;-29
2021/12/08 07:00:48;;;;;;;34.47;5.82;;;;;;;;;;4995609;28;20030;-29
2021/12/08 07:06:10;;;;;;;22.40;5.22;;;;;;;;;;4995906;28;20054;-28
2021/12/08 07:08:39;;;;;;;20.10;3.10;;;;;;;;;;4995187;28;20101;-28
2021/12/08 07:11:06;;;;;;;25.45;4.25;;;;;;;;;;4995557;28;20053;-29
2021/12/08 07:13:33;;;;;;;27.92;4.80;;;;;;;;;;4994638;28;20038;-29
2021/12/08 07:16:03;;;;;;;26.90;4.25;;;;;;;;;;4995133;28;20041;-28
2021/12/08 07:18:29;;;;;;;26.45;4.43;;;;;;;;;;4995129;28;20023;-29
2021/12/08 07:21:01;;;;;;;32.30;6.78;;;;;;;;;;4995381;28;20026;-29
2021/12/08 07:23:36;;;;;;;23.73;4.30;;;;;;;;;;4995058;28;20026;-28
2021/12/08 07:26:03;;;;;;;32.92;6.32;;;;;;;;;;4995300;28;20377;-29
2021/12/08 07:28:29;;;;;;;27.52;5.57;;;;;;;;;;4994656;28;20035;-28
2021/12/08 07:31:01;;;;;;;27.58;3.63;;;;;;;;;;4995145;28;20061;-29
2021/12/08 07:33:27;;;;;;;24.95;4.25;;;;;;;;;;4995229;28;20105;-29
2021/12/08 07:35:55;;;;;;;28.85;4.40;;;;;;;;;;4995170;28;20365;-29
2021/12/08 07:38:23;;;;;;;25.90;4.97;;;;;;;;;;4994963;28;20153;-29
2021/12/08 07:40:55;;;;;;;26.42;5.35;;;;;;;;;;4994972;28;20030;-29
2021/12/08 07:43:23;;;;;;;34.15;6.25;;;;;;;;;;4977654;28;20063;-29
2021/12/08 07:45:52;;;;;;;21.00;3.83;;;;;;;;;;4994915;28;20030;-28
2021/12/08 07:48:21;;;;;;;23.50;3.67;;;;;;;;;;4994913;28;20426;-28
2021/12/08 07:50:49;;;;;;;21.98;4.32;;;;;;;;;;4994898;28;20034;-28
2021/12/08 07:53:17;;;;;;;27.23;5.72;;;;;;;;;;4995020;28;20490;-28
2021/12/08 07:55:46;;;;;;;23.80;4.20;;;;;;;;;;4994986;28;20354;-28
2021/12/08 07:58:14;;;;;;;27.23;3.95;;;;;;;;;;4994763;28;20172;-28
2021/12/08 08:00:49;;;;;;;38.72;4.93;;;;;;;;;;4994997;28;20085;-28
2021/12/08 08:03:16;;;;;;;34.13;4.25;;;;;;;;;;4994791;28;20177;-28
2021/12/08 08:05:44;;;;;;;24.05;5.97;;;;;;;;;;4995076;28;20061;-29
2021/12/08 08:08:13;;;;;;;25.73;4.63;;;;;;;;;;4994822;28;20034;-29
2021/12/08 08:10:43;;;;;;;26.83;4.57;;;;;;;;;;4994678;28;20072;-29
2021/12/08 08:13:10;;;;;;;26.13;4.55;;;;;;;;;;4994859;28;20036;-29
2021/12/08 08:15:40;;;;;;;35.58;5.13;;;;;;;;;;4994568;28;20026;-28
2021/12/08 08:18:09;;;;;;;27.60;3.45;;;;;;;;;;4994897;28;20037;-29
2021/12/08 08:20:38;;;;;;;38.88;5.90;;;;;;;;;;4994515;28;20045;-29
2021/12/08 08:23:05;;;;;;;35.00;5.72;;;;;;;;;;4994420;28;20050;-29
2021/12/08 08:25:34;;;;;;;33.20;6.32;;;;;;;;;;4995808;28;20061;-28
2021/12/08 08:28:01;;;;;;;30.35;6.68;;;;;;;;;;4998233;28;20046;-29
2021/12/08 08:30:31;;;;;;;28.73;5.50;;;;;;;;;;4998172;28;20030;-29
2021/12/08 08:32:59;;;;;;;43.23;6.33;;;;;;;;;;4998174;28;20064;-29
2021/12/08 08:35:36;;;;;;;40.80;6.47;;;;;;;;;;4998267;28;20408;-29
2021/12/08 08:38:06;;;;;;;43.53;5.85;;;;;;;;;;4998178;28;20122;-29
2021/12/08 08:40:39;;;;;;;37.03;5.53;;;;;;;;;;4998023;28;20054;-29
2021/12/08 08:43:06;;;;;;;29.17;4.88;;;;;;;;;;4998111;28;20049;-29
2021/12/08 08:45:35;;;;;;;32.58;6.70;;;;;;;;;;4997943;28;20090;-29
2021/12/08 08:48:04;;;;;;;35.88;5.80;;;;;;;;;;4998182;28;20361;-28
2021/12/08 08:50:37;;;;;;;29.23;5.22;;;;;;;;;;4997879;28;20058;-29
2021/12/08 08:53:04;;;;;;;25.92;4.65;;;;;;;;;;4998080;28;20092;-29
2021/12/08 08:55:50;;;;;;;34.05;4.95;;;;;;;;;;4997661;28;20035;-29
2021/12/08 08:58:18;;;;;;;35.70;6.30;;;;;;;;;;4997466;28;20466;-28
2021/12/08 09:00:50;;;;;;;39.50;5.40;;;;;;;;;;4997582;28;20104;-29
2021/12/08 09:03:19;;;;;;;38.97;4.88;;;;;;;;;;4997377;28;20049;-29
2021/12/08 09:05:52;;;;;;;23.73;4.60;;;;;;;;;;4997563;28;20030;-29
2021/12/08 09:08:20;;;;;;;31.92;6.28;;;;;;;;;;4997480;28;20034;-29
2021/12/08 09:10:53;;;;;;;45.53;5.53;;;;;;;;;;4997480;28;20042;-29
2021/12/08 09:13:21;;;;;;;38.30;6.38;;;;;;;;;;4997394;28;20022;-29
2021/12/08 09:15:51;;;;;;;33.03;6.68;;;;;;;;;;4997273;28;20109;-29
2021/12/08 09:18:20;;;;;;;43.30;6.28;;;;;;;;;;4997387;28;20022;-28
2021/12/08 09:20:59;;;;;;;33.40;8.55;;;;;;;;;;4997315;28;20027;-28
2021/12/08 09:23:32;;;;;;;28.38;5.15;;;;;;;;;;4997478;28;20050;-29
2021/12/08 09:26:02;;;;;;;30.73;5.43;;;;;;;;;;4997212;28;20046;-28
2021/12/08 09:28:33;;;;;;;17.45;6.72;;;;;;;;;;4997261;28;20026;-29
2021/12/08 09:31:08;;;;;;;28.75;5.65;;;;;;;;;;4979968;28;20030;-29
2021/12/08 09:33:39;;;;;;;30.77;6.70;;;;;;;;;;4996956;28;20056;-29
2021/12/08 09:36:11;;;;;;;33.97;5.78;;;;;;;;;;4979358;28;20026;-28
2021/12/08 09:38:43;;;;;;;32.97;5.28;;;;;;;;;;4997248;28;20030;-28
2021/12/08 09:41:18;;;;;;;25.73;4.95;;;;;;;;;;4997076;28;20025;-28
2021/12/08 09:43:50;;;;;;;41.58;6.28;;;;;;;;;;4996679;28;20454;-28
2021/12/08 09:46:21;;;;;;;41.65;5.38;;;;;;;;;;4996677;28;20050;-28
2021/12/08 09:48:48;;;;;;;34.65;4.68;;;;;;;;;;4996960;28;20031;-28
2021/12/08 09:51:15;;;;;;;34.95;5.90;;;;;;;;;;4997017;28;20104;-28
2021/12/08 09:53:43;;;;;;;34.72;5.13;;;;;;;;;;4996827;28;20036;-28
2021/12/08 09:56:10;;;;;;;25.60;5.20;;;;;;;;;;4996680;28;20088;-28
2021/12/08 09:58:37;;;;;;;25.30;5.03;;;;;;;;;;4996870;28;20458;-28
2021/12/08 10:01:04;;;;;;;30.92;6.18;;;;;;;;;;4996556;28;20473;-28
2021/12/08 10:03:32;;;;;;;26.95;5.35;;;;;;;;;;4996189;28;20046;-28
2021/12/08 10:05:59;;;;;;;39.38;4.20;;;;;;;;;;4996428;28;20101;-28
2021/12/08 10:08:25;;;;;;;23.60;4.88;;;;;;;;;;4996646;28;20037;-28
2021/12/08 10:10:52;;;;;;;22.02;4.05;;;;;;;;;;4996207;28;20461;-28
2021/12/08 10:13:18;;;;;;;39.03;5.20;;;;;;;;;;4996240;28;20043;-28
2021/12/08 10:15:44;;;;;;;27.15;5.55;;;;;;;;;;4996575;28;20034;-28
2021/12/08 10:18:12;;;;;;;45.58;4.68;;;;;;;;;;4996464;28;20018;-28
2021/12/08 10:20:41;;;;;;;36.95;5.07;;;;;;;;;;4996228;28;20027;-28
2021/12/08 10:23:16;;;;;;;22.67;4.90;;;;;;;;;;4996137;28;20033;-28
2021/12/08 10:25:44;;;;;;;25.27;6.03;;;;;;;;;;4996109;28;20041;-28
2021/12/08 10:28:10;;;;;;;31.90;5.10;;;;;;;;;;4996328;28;20117;-28
2021/12/08 10:30:41;;;;;;;38.25;6.07;;;;;;;;;;4996186;28;20037;-28
2021/12/08 10:33:12;;;;;;;34.67;6.63;;;;;;;;;;4996157;28;20022;-28
2021/12/08 10:35:41;;;;;;;;;;;;;;;;;;4996523;28;20026;-28
2021/12/08 10:38:08;;;;;;;40.28;5.43;;;;;;;;;;4995796;28;20408;-28
2021/12/08 10:40:34;;;;;;;39.58;6.43;;;;;;;;;;4995813;28;20061;-28
2021/12/08 10:43:12;;;;;;;34.50;6.88;;;;;;;;;;4995443;28;20022;-28
2021/12/08 10:45:39;;;;;;;51.28;7.80;;;;;;;;;;4995680;28;20050;-28
2021/12/08 10:48:07;;;;;;;23.83;5.05;;;;;;;;;;4995125;28;20462;-28
2021/12/08 10:56:11;;;;;;;30.65;4.82;;;;;;;;;;4995568;28;20540;-28
2021/12/08 10:58:43;;;;;;;30.73;5.05;;;;;;;;;;4995472;28;20092;-28
2021/12/08 11:01:12;;;;;;;40.05;6.32;;;;;;;;;;4978598;28;20105;-28
2021/12/08 11:03:39;;;;;;;24.05;5.07;;;;;;;;;;4995034;28;20104;-28
2021/12/08 11:06:06;;;;;;;18.70;6.43;;;;;;;;;;4995517;28;20037;-27
2021/12/08 11:08:34;;;;;;;25.63;4.80;;;;;;;;;;4995391;28;20408;-28
2021/12/08 11:11:06;;;;;;;19.50;5.78;;;;;;;;;;4995235;28;20461;-28
2021/12/08 11:13:34;;;;;;;30.77;4.88;;;;;;;;;;4994940;28;20112;-28
2021/12/08 11:16:00;;;;;;;30.02;6.10;;;;;;;;;;4994915;28;20058;-28
2021/12/08 11:18:29;;;;;;;29.90;6.03;;;;;;;;;;4995319;28;20117;-28
2021/12/08 11:21:01;;;;;;;33.45;5.25;;;;;;;;;;4995011;28;20096;-28
2021/12/08 11:23:40;;;;;;;42.03;5.63;;;;;;;;;;4994890;28;20093;-28
2021/12/08 11:26:12;;;;;;;32.00;4.90;;;;;;;;;;4995127;28;20054;-28
2021/12/08 11:28:40;;;;;;;41.45;7.00;;;;;;;;;;4995109;28;20031;-28
2021/12/08 11:31:13;;;;;;;34.13;4.70;;;;;;;;;;4994993;28;20038;-28
2021/12/08 11:33:47;;;;;;;30.60;6.80;;;;;;;;;;4995058;28;20030;-28
2021/12/08 11:36:16;;;;;;;30.30;5.55;;;;;;;;;;4995303;28;20058;-28
2021/12/08 11:38:44;;;;;;;34.00;5.05;;;;;;;;;;4994953;28;20050;-28
2021/12/08 11:41:21;;;;;;;37.75;5.28;;;;;;;;;;4995016;28;20023;-28
2021/12/08 11:43:55;;;;;;;33.28;4.57;;;;;;;;;;4995178;28;20037;-28
2021/12/08 11:46:21;;;;;;;30.20;4.13;;;;;;;;;;4994905;28;20088;-28
2021/12/08 11:49:14;;;;;;;32.33;4.95;;;;;;;;;;4995749;28;20353;-28
2021/12/08 11:51:43;;;;;;;28.67;5.07;;;;;;;;;;4974567;28;20049;-27
2021/12/08 11:54:30;;;;;;;28.45;4.20;;;;;;;;;;4994753;28;20509;-28
2021/12/08 11:57:10;;;;;;;40.20;7.45;;;;;;;;;;4994966;28;20034;-27
2021/12/08 11:59:46;;;;;;;38.90;7.80;;;;;;;;;;4996336;28;20022;-28
2021/12/08 12:02:16;;;;;;;36.53;4.93;;;;;;;;;;4999020;28;20358;-28
2021/12/08 12:04:43;;;;;;;43.70;5.40;;;;;;;;;;4998672;28;20046;-27
2021/12/08 12:07:12;;;;;;;28.00;5.20;;;;;;;;;;4998919;28;20339;-28
2021/12/08 12:09:39;;;;;;;29.50;4.53;;;;;;;;;;4998445;28;20457;-28
2021/12/08 12:12:06;;;;;;;31.08;6.28;;;;;;;;;;4998487;28;20030;-28
2021/12/08 12:14:32;;;;;;;46.47;5.95;;;;;;;;;;4998765;28;20042;-28
2021/12/08 12:16:58;;;;;;;30.92;5.07;;;;;;;;;;4998583;28;20058;-28
2021/12/08 12:19:26;;;;;;;31.30;5.78;;;;;;;;;;4998539;28;20057;-28
2021/12/08 12:22:03;;;;;;;29.20;5.10;;;;;;;;;;4998560;28;20337;-28
2021/12/08 12:24:32;;;;;;;30.67;6.53;;;;;;;;;;4998810;28;20398;-28
2021/12/08 12:27:10;;;;;;;30.92;5.75;;;;;;;;;;4998513;28;20097;-28
2021/12/08 12:29:45;;;;;;;27.50;5.90;;;;;;;;;;4998633;28;20023;-27
2021/12/08 12:32:13;;;;;;;32.28;4.47;;;;;;;;;;4998194;28;20066;-27
2021/12/08 12:34:40;;;;;;;31.73;5.35;;;;;;;;;;4998249;28;20096;-28
2021/12/08 12:37:26;;;;;;;33.17;5.20;;;;;;;;;;4998427;28;20069;-28
2021/12/08 12:39:54;;;;;;;31.63;5.30;;;;;;;;;;4997908;28;20049;-28
2021/12/08 12:42:21;;;;;;;27.02;4.88;;;;;;;;;;4997959;28;20046;-28
2021/12/08 12:45:06;;;;;;;20.02;4.53;;;;;;;;;;4998204;28;20042;-28
2021/12/08 12:47:32;;;;;;;39.90;7.63;;;;;;;;;;4997734;28;20022;-28
2021/12/08 12:50:04;;;;;;;22.42;4.47;;;;;;;;;;4997817;28;20050;-28
2021/12/08 12:52:36;;;;;;;23.42;6.15;;;;;;;;;;4997901;28;20038;-28
2021/12/08 12:55:08;;;;;;;30.58;7.25;;;;;;;;;;4997880;28;20022;-28
2021/12/08 12:57:34;;;;;;;;;;;;;;;;;;4998396;28;20022;-28
2021/12/08 13:00:00;;;;;;;29.30;4.47;;;;;;;;;;4997694;28;20055;-28
2021/12/08 13:02:31;;;;;;;23.55;6.13;;;;;;;;;;4997838;28;20054;-28
2021/12/08 13:05:00;;;;;;;28.80;6.88;;;;;;;;;;4997438;28;20065;-28
2021/12/08 13:07:27;;;;;;;30.67;4.55;;;;;;;;;;4997850;28;20101;-28
2021/12/08 13:09:56;;;;;;;19.77;4.72;;;;;;;;;;4997527;28;20042;-28
2021/12/08 13:12:34;;;;;;;24.50;6.45;;;;;;;;;;4996554;28;20040;-28
2021/12/08 13:15:06;;;;;;;24.33;5.68;;;;;;;;;;4997548;28;20077;-28
2021/12/08 13:17:33;;;;;;;37.85;7.03;;;;;;;;;;4997318;28;20026;-28
2021/12/08 13:20:00;;;;;;;26.15;4.93;;;;;;;;;;4997632;28;20026;-28
2021/12/08 13:22:46;;;;;;;39.03;5.80;;;;;;;;;;4997267;28;20037;-28
2021/12/08 13:25:23;;;;;;;27.30;5.00;;;;;;;;;;4997482;28;20034;-28
2021/12/08 13:27:52;;;;;;;27.67;5.43;;;;;;;;;;4997671;28;20026;-28
2021/12/08 13:30:19;;;;;;;25.23;5.68;;;;;;;;;;4997372;28;20026;-27
2021/12/08 13:32:46;;;;;;;20.75;4.85;;;;;;;;;;4996985;28;20369;-27
2021/12/08 13:35:14;;;;;;;23.52;4.50;;;;;;;;;;4997535;28;20045;-28
2021/12/08 13:37:56;;;;;;;23.83;5.03;;;;;;;;;;4997168;28;20026;-28
2021/12/08 13:40:39;;;;;;;28.77;4.20;;;;;;;;;;4997142;28;20069;-28
2021/12/08 13:43:09;;;;;;;24.90;5.38;;;;;;;;;;4996709;28;20058;-28
2021/12/08 13:45:42;;;;;;;26.42;4.55;;;;;;;;;;4996721;28;20520;-28
2021/12/08 13:48:09;;;;;;;28.02;5.80;;;;;;;;;;4996724;28;20030;-27
2021/12/08 13:50:36;;;;;;;30.83;5.60;;;;;;;;;;4979533;28;20034;-28
2021/12/08 13:53:09;;;;;;;31.42;5.15;;;;;;;;;;4996297;28;20081;-28
2021/12/08 13:55:40;;;;;;;30.33;5.18;;;;;;;;;;4996727;28;20109;-28
2021/12/08 13:58:07;;;;;;;36.67;4.63;;;;;;;;;;4996413;28;20027;-28
2021/12/08 14:00:38;;;;;;;39.47;6.25;;;;;;;;;;4996420;28;20030;-28
2021/12/08 14:03:10;;;;;;;34.45;4.57;;;;;;;;;;4996078;28;20398;-28
2021/12/08 14:05:38;;;;;;;37.35;5.20;;;;;;;;;;4996635;28;20035;-28
2021/12/08 14:08:16;;;;;;;33.08;5.95;;;;;;;;;;4996329;28;20034;-28
2021/12/08 14:10:44;;;;;;;43.90;6.22;;;;;;;;;;4996378;28;20034;-28
2021/12/08 14:13:11;;;;;;;44.25;5.45;;;;;;;;;;4997029;28;20354;-28
2021/12/08 14:15:41;;;;;;;52.72;5.63;;;;;;;;;;4996420;28;20110;-28
2021/12/08 14:18:13;;;;;;;59.70;7.82;;;;;;;;;;4996099;28;20457;-28
2021/12/08 14:20:40;;;;;;;34.60;5.05;;;;;;;;;;4996197;28;20030;-28
2021/12/08 14:23:07;;;;;;;26.48;4.47;;;;;;;;;;4996219;28;20044;-28
2021/12/08 14:25:38;;;;;;;36.60;5.93;;;;;;;;;;4995884;28;20030;-28
2021/12/08 14:28:23;;;;;;;31.08;7.15;;;;;;;;;;4996155;28;20038;-28
2021/12/08 14:30:49;;;;;;;41.92;6.90;;;;;;;;;;4995960;28;20030;-28
2021/12/08 14:33:22;;;;;;;30.27;5.10;;;;;;;;;;4995764;28;20038;-28
2021/12/08 14:35:58;;;;;;;33.97;8.55;;;;;;;;;;4995765;28;20349;-28
2021/12/08 14:38:24;;;;;;;41.95;5.80;;;;;;;;;;4996501;28;20030;-28
2021/12/08 14:40:50;;;;;;;48.55;5.55;;;;;;;;;;4995780;28;20034;-28
2021/12/08 14:43:27;;;;;;;36.40;5.60;;;;;;;;;;4995924;28;20026;-28
2021/12/08 14:45:54;;;;;;;31.90;5.93;;;;;;;;;;4995858;28;20081;-28
2021/12/08 14:48:20;;;;;;;28.67;3.63;;;;;;;;;;4995673;28;20037;-28
2021/12/08 14:50:46;;;;;;;34.72;7.45;;;;;;;;;;4995651;28;20093;-27
2021/12/08 14:53:16;;;;;;;38.45;7.50;;;;;;;;;;4995463;28;20034;-28
2021/12/08 14:55:42;;;;;;;35.45;5.85;;;;;;;;;;4978353;28;20045;-28
2021/12/08 14:58:12;;;;;;;38.50;5.43;;;;;;;;;;4995800;28;20026;-28
2021/12/08 15:00:39;;;;;;;34.28;4.53;;;;;;;;;;4995476;28;20030;-28
2021/12/08 15:03:11;;;;;;;35.58;6.85;;;;;;;;;;4995128;28;20108;-29
2021/12/08 15:05:39;;;;;;;28.60;4.70;;;;;;;;;;4995434;28;20037;-28
2021/12/08 15:08:10;;;;;;;24.08;4.97;;;;;;;;;;4978524;28;20038;-28
2021/12/08 15:10:36;;;;;;;32.15;5.22;;;;;;;;;;4995398;28;20065;-28
2021/12/08 15:13:07;;;;;;;23.83;4.57;;;;;;;;;;4995340;28;20022;-28
2021/12/08 15:15:34;;;;;;;37.58;5.82;;;;;;;;;;4995503;28;20022;-28
2021/12/08 15:18:02;;;;;;;30.35;6.00;;;;;;;;;;4995388;28;20018;-28
2021/12/08 15:20:33;;;;;;;22.80;4.78;;;;;;;;;;4995096;28;20053;-28
2021/12/08 15:22:59;;;;;;;;;;;;;;;;;;4995562;28;20030;-29
2021/12/08 15:25:25;;;;;;;26.60;5.88;;;;;;;;;;4995136;28;19909;-29
2021/12/08 15:27:53;;;;;;;24.85;5.53;;;;;;;;;;4995135;28;20038;-28